createdAt,value
2022-10-05T00:01:55.015Z,2.30
2022-10-05T00:04:28.338Z,2.17
2022-10-05T00:07:08.471Z,2.60
2022-10-05T00:09:35.223Z,2.50
2022-10-05T00:12:18.187Z,2.30
2022-10-05T00:14:47.085Z,2.38
2022-10-05T00:17:21.527Z,2.60
2022-10-05T00:19:52.409Z,2.70
2022-10-05T00:22:24.818Z,3.83
2022-10-05T00:24:57.750Z,3.05
2022-10-05T00:27:39.276Z,2.70
2022-10-05T00:30:18.910Z,2.53
2022-10-05T00:32:46.071Z,2.78
2022-10-05T00:35:13.705Z,2.88
2022-10-05T00:37:41.062Z,2.63
2022-10-05T00:40:32.498Z,3.72
2022-10-05T00:43:10.942Z,2.70
2022-10-05T00:45:48.859Z,2.70
2022-10-05T00:48:32.877Z,2.95
2022-10-05T00:51:20.684Z,2.45
2022-10-05T00:53:59.378Z,3.55
2022-10-05T00:56:51.899Z,2.80
2022-10-05T00:59:24.296Z,2.38
2022-10-05T01:02:15.361Z,2.88
2022-10-05T01:04:59.314Z,2.50
2022-10-05T01:07:49.859Z,2.75
2022-10-05T01:10:34.691Z,2.78
2022-10-05T01:13:15.871Z,2.53
2022-10-05T01:15:44.996Z,2.70
2022-10-05T01:18:19.392Z,2.67
2022-10-05T01:20:55.018Z,2.70
2022-10-05T01:23:24.332Z,2.50
2022-10-05T01:25:59.596Z,2.72
2022-10-05T01:28:35.196Z,3.00
2022-10-05T01:31:17.923Z,2.80
2022-10-05T01:33:56.364Z,2.55
2022-10-05T01:36:36.731Z,2.60
2022-10-05T01:39:15.184Z,2.58
2022-10-05T01:42:04.313Z,2.90
2022-10-05T01:44:38.799Z,2.70
2022-10-05T01:47:10.136Z,2.90
2022-10-05T01:49:38.760Z,2.22
2022-10-05T01:52:35.776Z,2.78
2022-10-05T01:55:17.772Z,2.80
2022-10-05T01:58:02.740Z,2.67
2022-10-05T02:00:33.145Z,2.47
2022-10-05T02:03:17.368Z,3.05
2022-10-05T02:05:51.782Z,2.75
2022-10-05T02:08:26.736Z,3.10
2022-10-05T02:11:01.339Z,2.80
2022-10-05T02:13:30.632Z,2.85
2022-10-05T02:16:03.302Z,2.40
2022-10-05T02:19:12.017Z,2.60
2022-10-05T02:21:39.036Z,2.80
2022-10-05T02:24:11.825Z,2.60
2022-10-05T02:26:40.509Z,2.97
2022-10-05T02:29:11.442Z,2.67
2022-10-05T02:32:04.120Z,3.17
2022-10-05T02:34:42.901Z,2.95
2022-10-05T02:37:24.991Z,2.90
2022-10-05T02:39:57.269Z,2.92
2022-10-05T02:42:33.226Z,2.95
2022-10-05T02:45:14.012Z,3.30
2022-10-05T02:48:13.541Z,3.08
2022-10-05T02:50:52.737Z,3.00
2022-10-05T02:53:44.547Z,3.35
2022-10-05T02:56:19.037Z,3.00
2022-10-05T02:59:00.693Z,3.15
2022-10-05T03:02:19.981Z,3.05
2022-10-05T03:04:55.306Z,3.00
2022-10-05T03:07:32.283Z,3.25
2022-10-05T03:10:13.181Z,3.00
2022-10-05T03:13:00.593Z,3.35
2022-10-05T03:15:53.801Z,3.17
2022-10-05T03:18:38.737Z,3.15
2022-10-05T03:21:27.358Z,2.92
2022-10-05T03:23:59.694Z,3.30
2022-10-05T03:26:58.002Z,3.25
2022-10-05T03:32:11.046Z,3.47
2022-10-05T03:34:53.358Z,3.33
2022-10-05T03:37:30.351Z,3.30
2022-10-05T03:40:17.174Z,3.13
2022-10-05T03:43:06.801Z,3.15
2022-10-05T03:46:04.404Z,3.20
2022-10-05T03:48:48.481Z,3.08
2022-10-05T03:51:36.281Z,3.00
2022-10-05T03:57:06.545Z,3.47
2022-10-05T03:59:39.401Z,3.17
2022-10-05T04:02:13.239Z,3.40
2022-10-05T04:04:50.598Z,3.17
2022-10-05T04:07:51.122Z,3.00
2022-10-05T04:10:24.050Z,3.17
2022-10-05T04:13:06.966Z,3.33
2022-10-05T04:15:45.089Z,3.10
2022-10-05T04:18:23.530Z,3.38
2022-10-05T04:20:56.190Z,3.70
2022-10-05T04:23:44.774Z,3.88
2022-10-05T04:26:18.618Z,3.75
2022-10-05T04:29:04.986Z,3.17
2022-10-05T04:31:55.239Z,4.03
2022-10-05T04:34:54.379Z,3.10
2022-10-05T04:37:35.779Z,3.58
2022-10-05T04:40:34.594Z,3.42
2022-10-05T04:43:19.217Z,3.92
2022-10-05T04:46:14.168Z,3.92
2022-10-05T04:48:52.797Z,4.35
2022-10-05T04:51:37.790Z,4.25
2022-10-05T04:54:18.669Z,4.30
2022-10-05T04:56:53.094Z,3.97
2022-10-05T04:59:22.620Z,5.00
2022-10-05T05:02:16.551Z,4.07
2022-10-05T05:04:57.912Z,3.80
2022-10-05T05:07:30.451Z,4.00
2022-10-05T05:09:59.587Z,4.43
2022-10-05T05:12:50.153Z,4.32
2022-10-05T05:15:29.093Z,4.63
2022-10-05T05:18:01.213Z,4.38
2022-10-05T05:20:28.029Z,4.38
2022-10-05T05:23:26.649Z,4.43
2022-10-05T05:26:06.617Z,4.22
2022-10-05T05:28:53.174Z,4.03
2022-10-05T05:31:45.143Z,4.05
2022-10-05T05:34:36.530Z,3.90
2022-10-05T05:37:32.690Z,4.47
2022-10-05T05:40:25.209Z,4.05
2022-10-05T05:42:58.819Z,4.50
2022-10-05T05:45:31.078Z,3.80
2022-10-05T05:47:59.482Z,4.80
2022-10-05T05:51:08.709Z,4.40
2022-10-05T05:53:45.589Z,3.97
2022-10-05T05:56:18.969Z,4.88
2022-10-05T05:58:51.989Z,4.43
2022-10-05T06:01:44.639Z,4.60
2022-10-05T06:04:38.264Z,4.18
2022-10-05T06:07:05.937Z,4.57
2022-10-05T06:09:45.322Z,4.53
2022-10-05T06:12:20.146Z,4.57
2022-10-05T06:14:50.369Z,4.63
2022-10-05T06:17:24.645Z,4.30
2022-10-05T06:19:59.023Z,4.53
2022-10-05T06:22:37.147Z,4.05
2022-10-05T06:25:09.659Z,4.80
2022-10-05T06:27:37.881Z,4.50
2022-10-05T06:30:11.103Z,4.43
2022-10-05T06:32:58.586Z,4.75
2022-10-05T06:36:00.636Z,4.60
2022-10-05T06:38:47.986Z,4.93
2022-10-05T06:41:27.653Z,4.35
2022-10-05T06:44:03.943Z,4.40
2022-10-05T06:46:40.302Z,4.73
2022-10-05T06:49:18.336Z,5.20
2022-10-05T06:52:03.051Z,4.30
2022-10-05T06:54:50.200Z,4.57
2022-10-05T06:57:50.586Z,4.43
2022-10-05T07:00:21.284Z,4.68
2022-10-05T07:03:25.428Z,4.82
2022-10-05T07:06:06.894Z,4.80
2022-10-05T07:08:54.327Z,4.43
2022-10-05T07:11:59.659Z,4.32
2022-10-05T07:14:45.565Z,4.50
2022-10-05T07:17:50.379Z,4.18
2022-10-05T07:20:30.291Z,4.70
2022-10-05T07:23:14.821Z,4.70
2022-10-05T07:25:50.333Z,4.65
2022-10-05T07:28:25.851Z,4.20
2022-10-05T07:31:02.040Z,4.53
2022-10-05T07:33:56.602Z,5.03
2022-10-05T07:36:52.229Z,5.00
2022-10-05T07:39:55.344Z,4.80
2022-10-05T07:42:52.053Z,4.70
2022-10-05T07:45:29.695Z,4.70
2022-10-05T07:47:59.152Z,4.60
2022-10-05T07:50:38.627Z,5.07
2022-10-05T07:53:11.362Z,4.75
2022-10-05T07:55:43.791Z,5.53
2022-10-05T07:58:24.572Z,5.78
2022-10-05T08:01:00.534Z,5.45
2022-10-05T08:03:34.426Z,4.80
2022-10-05T08:06:03.926Z,5.00
2022-10-05T08:08:50.583Z,4.18
2022-10-05T08:11:23.870Z,5.20
2022-10-05T08:14:33.728Z,5.25
2022-10-05T08:17:04.230Z,5.30
2022-10-05T08:19:47.459Z,4.97
2022-10-05T08:22:23.139Z,4.90
2022-10-05T08:24:57.870Z,4.15
2022-10-05T08:28:10.507Z,4.80
2022-10-05T08:31:02.282Z,4.63
2022-10-05T08:33:35.945Z,5.28
2022-10-05T08:36:10.728Z,4.75
2022-10-05T08:38:37.778Z,5.85
2022-10-05T08:41:19.870Z,4.93
2022-10-05T08:43:52.227Z,4.72
2022-10-05T08:46:36.059Z,4.32
2022-10-05T08:49:14.636Z,4.72
2022-10-05T08:51:58.787Z,4.80
2022-10-05T08:54:43.384Z,5.10
2022-10-05T08:57:46.611Z,5.15
2022-10-05T09:00:18.879Z,4.57
2022-10-05T09:03:16.467Z,5.30
2022-10-05T09:06:21.767Z,5.07
2022-10-05T09:08:56.580Z,4.57
2022-10-05T09:11:36.192Z,5.07
2022-10-05T09:14:29.569Z,5.43
2022-10-05T09:17:20.196Z,4.45
2022-10-05T09:19:52.495Z,4.22
2022-10-05T09:22:43.811Z,5.07
2022-10-05T09:25:56.620Z,5.57
2022-10-05T09:28:31.174Z,5.80
2022-10-05T09:31:07.567Z,5.45
2022-10-05T09:33:53.894Z,4.45
2022-10-05T09:36:34.498Z,4.63
2022-10-05T09:39:22.925Z,4.43
2022-10-05T09:42:11.885Z,4.25
2022-10-05T09:44:56.236Z,5.45
2022-10-05T09:47:45.236Z,4.45
2022-10-05T09:50:49.325Z,4.72
2022-10-05T09:53:32.256Z,4.43
2022-10-05T09:56:34.667Z,5.63
2022-10-05T09:59:18.194Z,4.85
2022-10-05T10:01:59.235Z,4.93
2022-10-05T10:05:06.926Z,4.63
2022-10-05T10:07:52.829Z,3.97
2022-10-05T10:10:45.557Z,4.60
2022-10-05T10:13:45.714Z,4.57
2022-10-05T10:16:42.573Z,4.00
2022-10-05T10:19:35.393Z,4.70
2022-10-05T10:22:20.667Z,4.47
2022-10-05T10:25:24.914Z,4.35
2022-10-05T10:28:13.631Z,4.05
2022-10-05T10:31:05.014Z,4.93
2022-10-05T10:34:09.102Z,4.18
2022-10-05T10:36:57.162Z,4.25
2022-10-05T10:39:53.742Z,4.40
2022-10-05T10:42:41.850Z,4.00
2022-10-05T10:45:19.800Z,3.40
2022-10-05T10:47:52.056Z,4.10
2022-10-05T10:50:37.031Z,3.90
2022-10-05T10:53:52.992Z,4.25
2022-10-05T10:56:33.482Z,4.07
2022-10-05T10:59:08.102Z,3.83
2022-10-05T11:02:14.294Z,4.30
2022-10-05T11:04:56.218Z,3.97
2022-10-05T11:08:01.071Z,4.25
2022-10-05T11:10:55.389Z,3.45
2022-10-05T11:13:55.720Z,3.40
2022-10-05T11:16:27.983Z,4.28
2022-10-05T11:19:06.315Z,3.78
2022-10-05T11:22:00.210Z,3.55
2022-10-05T11:24:45.511Z,3.67
2022-10-05T11:27:56.099Z,3.65
2022-10-05T11:30:38.136Z,4.63
2022-10-05T11:33:22.974Z,4.15
2022-10-05T11:36:08.967Z,3.40
2022-10-05T11:39:11.459Z,4.07
2022-10-05T11:41:52.959Z,3.53
2022-10-05T11:44:41.316Z,4.32
2022-10-05T11:47:16.873Z,4.72
2022-10-05T11:49:53.903Z,4.03
2022-10-05T11:55:10.749Z,3.17
2022-10-05T11:57:49.557Z,3.33
2022-10-05T12:00:25.299Z,3.50
2022-10-05T12:03:03.557Z,3.15
2022-10-05T12:05:54.605Z,3.20
2022-10-05T12:08:50.381Z,3.53
2022-10-05T12:11:40.641Z,2.90
2022-10-05T12:14:20.815Z,3.50
2022-10-05T12:17:16.750Z,2.88
2022-10-05T12:19:51.469Z,3.10
2022-10-05T12:22:36.818Z,3.25
2022-10-05T12:25:42.369Z,3.05
2022-10-05T12:28:27.138Z,3.20
2022-10-05T12:31:20.642Z,3.10
2022-10-05T12:33:57.606Z,3.10
2022-10-05T12:39:29.954Z,3.40
2022-10-05T12:42:22.647Z,3.13
2022-10-05T12:44:57.335Z,3.05
2022-10-05T12:47:53.736Z,2.70
2022-10-05T12:50:23.513Z,2.80
2022-10-05T12:53:23.918Z,3.40
2022-10-05T12:56:05.506Z,3.20
2022-10-05T12:58:47.087Z,2.80
2022-10-05T13:01:34.945Z,2.83
2022-10-05T13:04:09.083Z,2.55
2022-10-05T13:07:08.127Z,2.92
2022-10-05T13:10:19.217Z,2.90
2022-10-05T13:13:24.979Z,2.45
2022-10-05T13:15:54.435Z,2.97
2022-10-05T13:18:36.167Z,2.67
2022-10-05T13:21:21.071Z,2.78
2022-10-05T13:24:06.529Z,2.80
2022-10-05T13:26:36.448Z,2.88
2022-10-05T13:29:25.912Z,2.80
2022-10-05T13:31:58.107Z,2.60
2022-10-05T13:34:43.321Z,2.30
2022-10-05T13:37:27.511Z,2.83
2022-10-05T13:40:15.476Z,2.30
2022-10-05T13:43:04.118Z,2.35
2022-10-05T13:46:04.778Z,2.60
2022-10-05T13:49:19.397Z,2.35
2022-10-05T13:52:13.851Z,2.55
2022-10-05T13:54:47.829Z,2.30
2022-10-05T13:57:45.303Z,1.92
2022-10-05T14:00:25.644Z,2.10
2022-10-05T14:02:56.830Z,2.30
2022-10-05T14:05:27.058Z,2.08
2022-10-05T14:08:02.659Z,2.25
2022-10-05T14:10:40.845Z,2.10
2022-10-05T14:13:32.084Z,1.90
2022-10-05T14:16:21.632Z,2.25
2022-10-05T14:19:14.357Z,2.00
2022-10-05T14:21:50.189Z,1.95
2022-10-05T14:24:49.446Z,2.30
2022-10-05T14:27:28.273Z,1.88
2022-10-05T14:30:13.013Z,1.85
2022-10-05T14:32:59.174Z,2.53
2022-10-05T14:35:29.749Z,1.90
2022-10-05T14:38:02.844Z,2.17
2022-10-05T14:40:35.408Z,2.10
2022-10-05T14:43:18.431Z,2.10
2022-10-05T14:45:55.181Z,2.15
2022-10-05T14:50:59.606Z,2.03
2022-10-05T14:53:38.847Z,2.50
2022-10-05T14:56:53.702Z,1.90
2022-10-05T14:59:46.811Z,2.35
2022-10-05T15:02:45.068Z,1.90
2022-10-05T15:05:34.575Z,2.30
2022-10-05T15:08:27.370Z,1.92
2022-10-05T15:11:18.678Z,1.85
2022-10-05T15:13:48.689Z,2.05
2022-10-05T15:16:28.912Z,2.10
2022-10-05T15:19:08.295Z,2.88
2022-10-05T15:21:43.838Z,2.60
2022-10-05T15:24:20.894Z,2.15
2022-10-05T15:26:54.383Z,2.30
2022-10-05T15:29:41.953Z,2.28
2022-10-05T15:32:42.073Z,2.85
2022-10-05T15:35:37.110Z,2.15
2022-10-05T15:38:17.790Z,2.17
2022-10-05T15:41:11.963Z,2.13
2022-10-05T15:44:19.046Z,2.30
2022-10-05T15:46:58.181Z,2.85
2022-10-05T15:49:30.438Z,2.65
2022-10-05T15:52:19.151Z,2.47
2022-10-05T15:55:01.539Z,2.53
2022-10-05T15:58:25.775Z,2.47
2022-10-05T16:00:58.781Z,2.17
2022-10-05T16:03:34.305Z,2.63
2022-10-05T16:06:27.563Z,2.80
2022-10-05T16:09:09.358Z,2.40
2022-10-05T16:12:09.862Z,2.38
2022-10-05T16:14:47.614Z,2.55
2022-10-05T16:17:40.970Z,2.67
2022-10-05T16:20:31.432Z,3.00
2022-10-05T16:23:40.253Z,2.53
2022-10-05T16:26:24.504Z,2.80
2022-10-05T16:29:02.341Z,2.92
2022-10-05T16:31:43.981Z,2.50
2022-10-05T16:34:27.119Z,2.70
2022-10-05T16:37:14.871Z,3.20
2022-10-05T16:39:49.561Z,3.00
2022-10-05T16:42:36.263Z,2.65
2022-10-05T16:45:18.688Z,2.90
2022-10-05T16:48:12.200Z,2.63
2022-10-05T16:50:55.135Z,2.60
2022-10-05T16:53:45.693Z,2.70
2022-10-05T16:56:17.272Z,2.67
2022-10-05T16:59:11.655Z,2.70
2022-10-05T17:02:06.092Z,2.75
2022-10-05T17:04:48.862Z,3.13
2022-10-05T17:07:42.170Z,2.72
2022-10-05T17:10:37.298Z,2.75
2022-10-05T17:13:42.091Z,2.88
2022-10-05T17:16:14.702Z,3.00
2022-10-05T17:19:10.324Z,3.15
2022-10-05T17:21:48.379Z,3.17
2022-10-05T17:24:30.113Z,3.35
2022-10-05T17:26:59.365Z,3.17
2022-10-05T17:29:32.075Z,3.15
2022-10-05T17:32:36.199Z,3.20
2022-10-05T17:35:18.245Z,3.08
2022-10-05T17:38:14.562Z,2.95
2022-10-05T17:41:03.402Z,3.13
2022-10-05T17:43:31.964Z,3.10
2022-10-05T17:46:07.278Z,3.10
2022-10-05T17:48:49.291Z,2.70
2022-10-05T17:51:57.716Z,3.30
2022-10-05T17:54:48.168Z,2.90
2022-10-05T17:57:23.951Z,3.40
2022-10-05T18:00:06.739Z,3.08
2022-10-05T18:02:36.917Z,3.10
2022-10-05T18:05:06.790Z,3.92
2022-10-05T18:07:38.856Z,3.63
2022-10-05T18:10:17.683Z,2.75
2022-10-05T18:12:47.917Z,2.90
2022-10-05T18:15:45.005Z,3.13
2022-10-05T18:18:32.958Z,3.33
2022-10-05T18:21:11.834Z,3.20
2022-10-05T18:23:41.619Z,3.22
2022-10-05T18:26:29.076Z,3.25
2022-10-05T18:29:40.869Z,3.20
2022-10-05T18:32:23.553Z,2.90
2022-10-05T18:35:08.619Z,3.88
2022-10-05T18:37:56.738Z,3.72
2022-10-05T18:40:54.611Z,3.13
2022-10-05T18:43:29.200Z,3.10
2022-10-05T18:46:05.191Z,2.90
2022-10-05T18:48:49.836Z,2.80
2022-10-05T18:51:35.300Z,2.78
2022-10-05T18:54:11.424Z,2.97
2022-10-05T18:56:48.809Z,3.13
2022-10-05T18:59:39.512Z,3.05
2022-10-05T19:02:43.526Z,3.05
2022-10-05T19:05:46.320Z,2.67
2022-10-05T19:10:57.560Z,3.55
2022-10-05T19:14:01.690Z,2.75
2022-10-05T19:16:52.833Z,2.97
2022-10-05T19:19:39.261Z,2.80
2022-10-05T19:22:21.961Z,3.38
2022-10-05T19:25:01.898Z,2.47
2022-10-05T19:27:44.709Z,2.78
2022-10-05T19:30:23.198Z,3.10
2022-10-05T19:32:58.452Z,2.53
2022-10-05T19:35:33.522Z,2.85
2022-10-05T19:38:15.992Z,2.78
2022-10-05T19:40:57.101Z,2.65
2022-10-05T19:43:29.976Z,2.38
2022-10-05T19:46:34.665Z,2.70
2022-10-05T19:49:01.749Z,2.78
2022-10-05T19:51:31.528Z,2.50
2022-10-05T19:54:02.127Z,2.72
2022-10-05T19:56:33.564Z,2.65
2022-10-05T19:59:18.717Z,2.63
2022-10-05T20:01:51.378Z,2.70
2022-10-05T20:04:41.454Z,2.80
2022-10-05T20:07:21.746Z,2.58
2022-10-05T20:09:59.945Z,2.65
2022-10-05T20:12:52.477Z,3.20
2022-10-05T20:15:39.968Z,3.08
2022-10-05T20:21:37.367Z,2.72
2022-10-05T20:24:31.977Z,2.63
2022-10-05T20:27:07.185Z,2.60
2022-10-05T20:29:36.782Z,2.90
2022-10-05T20:32:15.253Z,2.47
2022-10-05T21:49:37.600Z,2.30
2022-10-05T21:52:07.738Z,2.70
2022-10-05T21:54:35.122Z,2.55
2022-10-05T21:57:02.209Z,2.58
2022-10-05T21:59:32.978Z,2.60
2022-10-05T22:01:59.581Z,2.40
2022-10-05T22:04:26.448Z,2.20
2022-10-05T22:06:54.897Z,2.28
2022-10-05T22:09:21.350Z,2.15
2022-10-05T22:14:15.603Z,2.43
2022-10-05T22:16:44.088Z,2.00
2022-10-05T22:19:15.573Z,2.10
2022-10-05T22:21:42.069Z,2.10
2022-10-05T22:26:36.463Z,1.98
2022-10-05T22:29:03.673Z,2.30
2022-10-05T22:31:30.309Z,2.42
2022-10-05T22:33:56.864Z,1.83
2022-10-05T22:38:49.967Z,2.10
2022-10-05T22:43:50.312Z,2.13
2022-10-05T22:46:17.324Z,1.90
2022-10-05T22:48:43.943Z,2.15
2022-10-05T22:51:10.504Z,2.28
2022-10-05T22:53:37.092Z,2.17
2022-10-05T22:56:12.141Z,2.13
2022-10-05T22:58:39.783Z,1.88
2022-10-05T23:01:10.020Z,2.20
2022-10-05T23:03:36.856Z,2.00
2022-10-05T23:06:09.819Z,2.00
2022-10-05T23:08:37.831Z,2.03
2022-10-05T23:11:09.591Z,2.05
2022-10-05T23:13:36.504Z,1.90
2022-10-05T23:16:11.534Z,1.98
2022-10-05T23:18:38.383Z,2.00
2022-10-05T23:21:07.468Z,1.85
2022-10-05T23:23:38.047Z,2.65
2022-10-05T23:26:06.100Z,2.00
2022-10-05T23:28:33.458Z,2.25
2022-10-05T23:31:02.595Z,3.15
2022-10-05T23:33:29.358Z,2.17
2022-10-05T23:36:23.571Z,1.90
2022-10-05T23:38:50.822Z,2.47
2022-10-05T23:41:18.088Z,1.92
2022-10-05T23:43:44.595Z,2.00
2022-10-05T23:46:12.120Z,2.13
2022-10-05T23:48:39.409Z,2.22
2022-10-05T23:51:07.928Z,2.15
2022-10-05T23:53:34.581Z,1.95
2022-10-05T23:56:01.224Z,2.00
2022-10-05T23:58:28.464Z,2.20
